sensor_id;sensor_type;location;lat;lon;timestamp;P1;durP1;ratioP1;P2;durP2;ratioP2
55829;SDS011;41759;53.330;6.002;2023-11-21T00:01:58;2.63;;;1.45;;
55829;SDS011;41759;53.330;6.002;2023-11-21T00:04:24;2.70;;;1.27;;
55829;SDS011;41759;53.330;6.002;2023-11-21T00:06:50;5.35;;;1.63;;
55829;SDS011;41759;53.330;6.002;2023-11-21T00:09:16;4.32;;;1.50;;
55829;SDS011;41759;53.330;6.002;2023-11-21T00:11:44;5.28;;;1.60;;
55829;SDS011;41759;53.330;6.002;2023-11-21T00:14:10;3.17;;;1.38;;
55829;SDS011;41759;53.330;6.002;2023-11-21T00:16:36;4.60;;;1.52;;
55829;SDS011;41759;53.330;6.002;2023-11-21T00:19:02;3.70;;;1.60;;
55829;SDS011;41759;53.330;6.002;2023-11-21T00:21:28;3.92;;;1.60;;
55829;SDS011;41759;53.330;6.002;2023-11-21T00:23:54;3.38;;;1.52;;
55829;SDS011;41759;53.330;6.002;2023-11-21T00:26:20;5.13;;;1.70;;
55829;SDS011;41759;53.330;6.002;2023-11-21T00:28:46;8.23;;;1.77;;
55829;SDS011;41759;53.330;6.002;2023-11-21T00:31:12;5.03;;;1.95;;
55829;SDS011;41759;53.330;6.002;2023-11-21T00:33:38;2.70;;;1.70;;
55829;SDS011;41759;53.330;6.002;2023-11-21T00:36:04;7.38;;;2.13;;
55829;SDS011;41759;53.330;6.002;2023-11-21T00:38:37;5.38;;;2.08;;
55829;SDS011;41759;53.330;6.002;2023-11-21T00:41:06;9.70;;;2.80;;
55829;SDS011;41759;53.330;6.002;2023-11-21T00:43:32;8.45;;;3.05;;
55829;SDS011;41759;53.330;6.002;2023-11-21T00:45:59;10.65;;;3.38;;
55829;SDS011;41759;53.330;6.002;2023-11-21T00:48:24;8.93;;;3.30;;
55829;SDS011;41759;53.330;6.002;2023-11-21T00:50:50;11.95;;;3.53;;
55829;SDS011;41759;53.330;6.002;2023-11-21T00:53:16;17.83;;;4.35;;
55829;SDS011;41759;53.330;6.002;2023-11-21T00:55:42;10.02;;;4.00;;
55829;SDS011;41759;53.330;6.002;2023-11-21T00:58:08;18.20;;;4.30;;
55829;SDS011;41759;53.330;6.002;2023-11-21T01:00:35;9.82;;;3.83;;
55829;SDS011;41759;53.330;6.002;2023-11-21T01:03:04;15.55;;;3.67;;
55829;SDS011;41759;53.330;6.002;2023-11-21T01:05:30;14.27;;;4.00;;
55829;SDS011;41759;53.330;6.002;2023-11-21T01:07:56;10.07;;;4.80;;
55829;SDS011;41759;53.330;6.002;2023-11-21T01:10:22;15.88;;;4.32;;
55829;SDS011;41759;53.330;6.002;2023-11-21T01:12:47;9.45;;;4.03;;
55829;SDS011;41759;53.330;6.002;2023-11-21T01:15:14;22.48;;;4.95;;
55829;SDS011;41759;53.330;6.002;2023-11-21T01:17:40;12.52;;;2.92;;
55829;SDS011;41759;53.330;6.002;2023-11-21T01:20:06;8.05;;;2.00;;
55829;SDS011;41759;53.330;6.002;2023-11-21T01:22:38;4.32;;;1.73;;
55829;SDS011;41759;53.330;6.002;2023-11-21T01:25:04;5.50;;;1.40;;
55829;SDS011;41759;53.330;6.002;2023-11-21T01:27:33;3.05;;;1.42;;
55829;SDS011;41759;53.330;6.002;2023-11-21T01:29:59;2.17;;;1.70;;
55829;SDS011;41759;53.330;6.002;2023-11-21T01:32:26;2.70;;;1.48;;
55829;SDS011;41759;53.330;6.002;2023-11-21T01:34:53;1.65;;;1.30;;
55829;SDS011;41759;53.330;6.002;2023-11-21T01:37:20;4.28;;;1.90;;
55829;SDS011;41759;53.330;6.002;2023-11-21T01:39:47;4.55;;;1.88;;
55829;SDS011;41759;53.330;6.002;2023-11-21T01:42:13;3.15;;;1.77;;
55829;SDS011;41759;53.330;6.002;2023-11-21T01:44:39;2.70;;;1.67;;
55829;SDS011;41759;53.330;6.002;2023-11-21T01:47:05;5.53;;;1.70;;
55829;SDS011;41759;53.330;6.002;2023-11-21T01:49:33;4.90;;;1.88;;
55829;SDS011;41759;53.330;6.002;2023-11-21T01:51:59;2.58;;;1.75;;
55829;SDS011;41759;53.330;6.002;2023-11-21T01:54:25;2.50;;;1.52;;
55829;SDS011;41759;53.330;6.002;2023-11-21T01:56:52;3.17;;;2.00;;
55829;SDS011;41759;53.330;6.002;2023-11-21T01:59:18;3.30;;;1.38;;
55829;SDS011;41759;53.330;6.002;2023-11-21T02:01:49;3.47;;;1.30;;
55829;SDS011;41759;53.330;6.002;2023-11-21T02:04:17;2.40;;;1.15;;
55829;SDS011;41759;53.330;6.002;2023-11-21T02:06:44;2.05;;;1.10;;
55829;SDS011;41759;53.330;6.002;2023-11-21T02:09:10;1.70;;;1.20;;
55829;SDS011;41759;53.330;6.002;2023-11-21T02:11:40;2.38;;;1.25;;
55829;SDS011;41759;53.330;6.002;2023-11-21T02:14:06;3.50;;;1.40;;
55829;SDS011;41759;53.330;6.002;2023-11-21T02:16:34;2.67;;;1.70;;
55829;SDS011;41759;53.330;6.002;2023-11-21T02:19:00;1.88;;;0.98;;
55829;SDS011;41759;53.330;6.002;2023-11-21T02:21:28;1.27;;;1.00;;
55829;SDS011;41759;53.330;6.002;2023-11-21T02:23:55;1.00;;;0.80;;
55829;SDS011;41759;53.330;6.002;2023-11-21T02:26:21;4.65;;;1.05;;
55829;SDS011;41759;53.330;6.002;2023-11-21T02:28:47;3.15;;;0.77;;
55829;SDS011;41759;53.330;6.002;2023-11-21T02:31:13;1.65;;;0.88;;
55829;SDS011;41759;53.330;6.002;2023-11-21T02:33:39;3.75;;;1.10;;
55829;SDS011;41759;53.330;6.002;2023-11-21T02:36:05;2.58;;;1.27;;
55829;SDS011;41759;53.330;6.002;2023-11-21T02:38:31;2.15;;;1.20;;
55829;SDS011;41759;53.330;6.002;2023-11-21T02:40:57;2.10;;;1.27;;
55829;SDS011;41759;53.330;6.002;2023-11-21T02:43:24;3.35;;;1.60;;
55829;SDS011;41759;53.330;6.002;2023-11-21T02:45:50;3.95;;;1.27;;
55829;SDS011;41759;53.330;6.002;2023-11-21T02:48:16;3.22;;;1.10;;
55829;SDS011;41759;53.330;6.002;2023-11-21T02:50:41;2.30;;;1.15;;
55829;SDS011;41759;53.330;6.002;2023-11-21T02:53:08;3.03;;;1.15;;
55829;SDS011;41759;53.330;6.002;2023-11-21T02:55:35;5.65;;;1.40;;
55829;SDS011;41759;53.330;6.002;2023-11-21T02:58:01;4.28;;;1.00;;
55829;SDS011;41759;53.330;6.002;2023-11-21T03:00:29;1.73;;;1.10;;
55829;SDS011;41759;53.330;6.002;2023-11-21T03:02:55;5.65;;;1.42;;
55829;SDS011;41759;53.330;6.002;2023-11-21T03:05:21;3.90;;;1.30;;
55829;SDS011;41759;53.330;6.002;2023-11-21T03:07:47;3.88;;;1.40;;
55829;SDS011;41759;53.330;6.002;2023-11-21T03:10:13;4.55;;;1.55;;
55829;SDS011;41759;53.330;6.002;2023-11-21T03:12:39;5.53;;;1.58;;
55829;SDS011;41759;53.330;6.002;2023-11-21T03:15:06;6.15;;;1.65;;
55829;SDS011;41759;53.330;6.002;2023-11-21T03:17:32;5.25;;;2.08;;
55829;SDS011;41759;53.330;6.002;2023-11-21T03:20:01;8.00;;;2.53;;
55829;SDS011;41759;53.330;6.002;2023-11-21T03:22:29;6.32;;;2.20;;
55829;SDS011;41759;53.330;6.002;2023-11-21T03:24:54;7.30;;;2.50;;
55829;SDS011;41759;53.330;6.002;2023-11-21T03:27:20;10.52;;;2.80;;
55829;SDS011;41759;53.330;6.002;2023-11-21T03:29:47;9.45;;;2.78;;
55829;SDS011;41759;53.330;6.002;2023-11-21T03:32:14;9.88;;;2.92;;
55829;SDS011;41759;53.330;6.002;2023-11-21T03:34:53;4.85;;;2.70;;
55829;SDS011;41759;53.330;6.002;2023-11-21T03:37:21;9.05;;;2.60;;
55829;SDS011;41759;53.330;6.002;2023-11-21T03:39:47;12.73;;;3.70;;
55829;SDS011;41759;53.330;6.002;2023-11-21T03:42:13;9.88;;;3.63;;
55829;SDS011;41759;53.330;6.002;2023-11-21T03:44:39;9.80;;;3.42;;
55829;SDS011;41759;53.330;6.002;2023-11-21T03:47:05;10.45;;;3.67;;
55829;SDS011;41759;53.330;6.002;2023-11-21T03:49:31;12.75;;;4.45;;
55829;SDS011;41759;53.330;6.002;2023-11-21T03:51:57;16.83;;;4.32;;
55829;SDS011;41759;53.330;6.002;2023-11-21T03:54:22;14.77;;;5.05;;
55829;SDS011;41759;53.330;6.002;2023-11-21T03:56:48;13.10;;;5.35;;
55829;SDS011;41759;53.330;6.002;2023-11-21T03:59:14;15.93;;;4.78;;
55829;SDS011;41759;53.330;6.002;2023-11-21T04:01:40;15.32;;;5.85;;
55829;SDS011;41759;53.330;6.002;2023-11-21T04:04:06;13.27;;;4.78;;
55829;SDS011;41759;53.330;6.002;2023-11-21T04:06:32;15.30;;;5.43;;
55829;SDS011;41759;53.330;6.002;2023-11-21T04:08:58;18.95;;;5.10;;
55829;SDS011;41759;53.330;6.002;2023-11-21T04:11:24;15.02;;;5.22;;
55829;SDS011;41759;53.330;6.002;2023-11-21T04:13:50;17.83;;;6.07;;
55829;SDS011;41759;53.330;6.002;2023-11-21T04:16:15;19.63;;;6.22;;
55829;SDS011;41759;53.330;6.002;2023-11-21T04:18:41;16.83;;;5.20;;
55829;SDS011;41759;53.330;6.002;2023-11-21T04:21:07;14.20;;;5.53;;
55829;SDS011;41759;53.330;6.002;2023-11-21T04:23:33;13.75;;;5.60;;
55829;SDS011;41759;53.330;6.002;2023-11-21T04:26:00;20.60;;;4.95;;
55829;SDS011;41759;53.330;6.002;2023-11-21T04:28:27;14.95;;;5.25;;
55829;SDS011;41759;53.330;6.002;2023-11-21T04:30:53;15.57;;;5.15;;
55829;SDS011;41759;53.330;6.002;2023-11-21T04:33:19;13.35;;;5.68;;
55829;SDS011;41759;53.330;6.002;2023-11-21T04:35:46;14.80;;;5.07;;
55829;SDS011;41759;53.330;6.002;2023-11-21T04:38:12;12.25;;;4.95;;
55829;SDS011;41759;53.330;6.002;2023-11-21T04:40:38;16.90;;;4.50;;
55829;SDS011;41759;53.330;6.002;2023-11-21T04:43:04;14.23;;;5.15;;
55829;SDS011;41759;53.330;6.002;2023-11-21T04:45:30;20.55;;;5.65;;
55829;SDS011;41759;53.330;6.002;2023-11-21T04:47:57;13.30;;;5.57;;
55829;SDS011;41759;53.330;6.002;2023-11-21T04:50:23;12.73;;;5.03;;
55829;SDS011;41759;53.330;6.002;2023-11-21T04:52:51;20.55;;;5.88;;
55829;SDS011;41759;53.330;6.002;2023-11-21T04:55:17;17.52;;;5.57;;
55829;SDS011;41759;53.330;6.002;2023-11-21T04:57:42;19.92;;;6.18;;
55829;SDS011;41759;53.330;6.002;2023-11-21T05:00:09;16.90;;;6.25;;
55829;SDS011;41759;53.330;6.002;2023-11-21T05:02:35;23.55;;;7.15;;
55829;SDS011;41759;53.330;6.002;2023-11-21T05:05:01;22.15;;;7.15;;
55829;SDS011;41759;53.330;6.002;2023-11-21T05:07:30;27.27;;;7.93;;
55829;SDS011;41759;53.330;6.002;2023-11-21T05:09:57;25.13;;;8.18;;
55829;SDS011;41759;53.330;6.002;2023-11-21T05:12:23;24.48;;;8.50;;
55829;SDS011;41759;53.330;6.002;2023-11-21T05:14:50;25.15;;;8.60;;
55829;SDS011;41759;53.330;6.002;2023-11-21T05:17:16;21.27;;;7.10;;
55829;SDS011;41759;53.330;6.002;2023-11-21T05:19:42;18.02;;;7.03;;
55829;SDS011;41759;53.330;6.002;2023-11-21T05:22:10;24.20;;;6.53;;
55829;SDS011;41759;53.330;6.002;2023-11-21T05:24:37;22.10;;;7.43;;
55829;SDS011;41759;53.330;6.002;2023-11-21T05:27:06;21.70;;;7.28;;
55829;SDS011;41759;53.330;6.002;2023-11-21T05:29:31;22.10;;;6.38;;
55829;SDS011;41759;53.330;6.002;2023-11-21T05:31:57;17.38;;;7.40;;
55829;SDS011;41759;53.330;6.002;2023-11-21T05:34:23;19.48;;;7.18;;
55829;SDS011;41759;53.330;6.002;2023-11-21T05:36:49;19.13;;;7.20;;
55829;SDS011;41759;53.330;6.002;2023-11-21T05:39:16;19.77;;;6.63;;
55829;SDS011;41759;53.330;6.002;2023-11-21T05:41:46;16.50;;;7.07;;
55829;SDS011;41759;53.330;6.002;2023-11-21T05:44:12;22.50;;;6.90;;
55829;SDS011;41759;53.330;6.002;2023-11-21T05:46:39;23.42;;;7.13;;
55829;SDS011;41759;53.330;6.002;2023-11-21T05:49:05;23.50;;;7.28;;
55829;SDS011;41759;53.330;6.002;2023-11-21T05:51:33;20.88;;;6.55;;
55829;SDS011;41759;53.330;6.002;2023-11-21T05:53:59;18.48;;;7.00;;
55829;SDS011;41759;53.330;6.002;2023-11-21T05:56:24;26.02;;;7.32;;
55829;SDS011;41759;53.330;6.002;2023-11-21T05:58:50;18.42;;;6.43;;
55829;SDS011;41759;53.330;6.002;2023-11-21T06:01:17;21.48;;;6.70;;
55829;SDS011;41759;53.330;6.002;2023-11-21T06:03:43;23.58;;;6.40;;
55829;SDS011;41759;53.330;6.002;2023-11-21T06:06:09;26.00;;;6.47;;
55829;SDS011;41759;53.330;6.002;2023-11-21T06:08:35;21.45;;;7.45;;
55829;SDS011;41759;53.330;6.002;2023-11-21T06:11:01;19.30;;;6.22;;
55829;SDS011;41759;53.330;6.002;2023-11-21T06:13:26;23.17;;;6.95;;
55829;SDS011;41759;53.330;6.002;2023-11-21T06:15:53;20.88;;;7.32;;
55829;SDS011;41759;53.330;6.002;2023-11-21T06:18:19;21.02;;;7.32;;
55829;SDS011;41759;53.330;6.002;2023-11-21T06:20:45;33.17;;;12.50;;
55829;SDS011;41759;53.330;6.002;2023-11-21T06:23:11;24.38;;;7.93;;
55829;SDS011;41759;53.330;6.002;2023-11-21T06:25:37;20.95;;;8.00;;
55829;SDS011;41759;53.330;6.002;2023-11-21T06:28:04;22.67;;;7.10;;
55829;SDS011;41759;53.330;6.002;2023-11-21T06:30:30;26.08;;;7.70;;
55829;SDS011;41759;53.330;6.002;2023-11-21T06:32:56;20.10;;;8.27;;
55829;SDS011;41759;53.330;6.002;2023-11-21T06:35:22;18.83;;;7.40;;
55829;SDS011;41759;53.330;6.002;2023-11-21T06:37:48;22.20;;;8.18;;
55829;SDS011;41759;53.330;6.002;2023-11-21T06:40:14;17.85;;;7.63;;
55829;SDS011;41759;53.330;6.002;2023-11-21T06:42:40;17.60;;;7.43;;
55829;SDS011;41759;53.330;6.002;2023-11-21T06:45:07;19.10;;;7.15;;
55829;SDS011;41759;53.330;6.002;2023-11-21T06:47:36;20.38;;;7.40;;
55829;SDS011;41759;53.330;6.002;2023-11-21T06:50:03;23.15;;;9.85;;
55829;SDS011;41759;53.330;6.002;2023-11-21T06:52:29;25.42;;;11.07;;
55829;SDS011;41759;53.330;6.002;2023-11-21T06:54:58;20.52;;;9.80;;
55829;SDS011;41759;53.330;6.002;2023-11-21T06:57:24;17.63;;;7.90;;
55829;SDS011;41759;53.330;6.002;2023-11-21T06:59:51;14.73;;;7.15;;
55829;SDS011;41759;53.330;6.002;2023-11-21T07:02:17;17.33;;;7.50;;
55829;SDS011;41759;53.330;6.002;2023-11-21T07:04:44;14.02;;;7.00;;
55829;SDS011;41759;53.330;6.002;2023-11-21T07:07:11;14.98;;;7.28;;
55829;SDS011;41759;53.330;6.002;2023-11-21T07:09:37;14.90;;;7.30;;
55829;SDS011;41759;53.330;6.002;2023-11-21T07:12:04;15.00;;;7.05;;
55829;SDS011;41759;53.330;6.002;2023-11-21T07:14:33;16.40;;;7.32;;
55829;SDS011;41759;53.330;6.002;2023-11-21T07:16:59;15.45;;;7.38;;
55829;SDS011;41759;53.330;6.002;2023-11-21T07:19:25;14.05;;;6.65;;
55829;SDS011;41759;53.330;6.002;2023-11-21T07:21:51;15.93;;;7.25;;
55829;SDS011;41759;53.330;6.002;2023-11-21T07:24:17;13.25;;;6.80;;
55829;SDS011;41759;53.330;6.002;2023-11-21T07:26:43;13.77;;;6.85;;
55829;SDS011;41759;53.330;6.002;2023-11-21T07:29:09;17.67;;;6.93;;
55829;SDS011;41759;53.330;6.002;2023-11-21T07:31:37;13.93;;;6.30;;
55829;SDS011;41759;53.330;6.002;2023-11-21T07:34:03;15.35;;;6.22;;
55829;SDS011;41759;53.330;6.002;2023-11-21T07:36:29;11.82;;;5.82;;
55829;SDS011;41759;53.330;6.002;2023-11-21T07:38:55;16.23;;;6.55;;
55829;SDS011;41759;53.330;6.002;2023-11-21T07:41:21;16.55;;;6.25;;
55829;SDS011;41759;53.330;6.002;2023-11-21T07:43:50;15.25;;;6.80;;
55829;SDS011;41759;53.330;6.002;2023-11-21T07:46:16;13.55;;;6.40;;
55829;SDS011;41759;53.330;6.002;2023-11-21T07:48:43;12.82;;;6.25;;
55829;SDS011;41759;53.330;6.002;2023-11-21T07:51:09;13.55;;;6.03;;
55829;SDS011;41759;53.330;6.002;2023-11-21T07:53:35;13.35;;;6.32;;
55829;SDS011;41759;53.330;6.002;2023-11-21T07:56:05;11.82;;;5.13;;
55829;SDS011;41759;53.330;6.002;2023-11-21T07:58:33;12.50;;;6.18;;
55829;SDS011;41759;53.330;6.002;2023-11-21T08:00:59;11.20;;;6.10;;
55829;SDS011;41759;53.330;6.002;2023-11-21T08:03:25;11.70;;;5.57;;
55829;SDS011;41759;53.330;6.002;2023-11-21T08:05:52;12.13;;;6.00;;
55829;SDS011;41759;53.330;6.002;2023-11-21T08:08:18;15.80;;;5.70;;
55829;SDS011;41759;53.330;6.002;2023-11-21T08:10:44;16.23;;;7.10;;
55829;SDS011;41759;53.330;6.002;2023-11-21T08:13:13;13.55;;;7.15;;
55829;SDS011;41759;53.330;6.002;2023-11-21T08:15:42;13.88;;;6.75;;
55829;SDS011;41759;53.330;6.002;2023-11-21T08:18:11;15.23;;;6.68;;
55829;SDS011;41759;53.330;6.002;2023-11-21T08:20:38;12.98;;;6.68;;
55829;SDS011;41759;53.330;6.002;2023-11-21T08:23:05;13.70;;;6.28;;
55829;SDS011;41759;53.330;6.002;2023-11-21T08:25:32;11.73;;;5.85;;
55829;SDS011;41759;53.330;6.002;2023-11-21T08:27:59;13.48;;;5.90;;
55829;SDS011;41759;53.330;6.002;2023-11-21T08:30:25;10.60;;;5.90;;
55829;SDS011;41759;53.330;6.002;2023-11-21T08:32:54;10.70;;;5.72;;
55829;SDS011;41759;53.330;6.002;2023-11-21T08:35:23;11.02;;;5.07;;
55829;SDS011;41759;53.330;6.002;2023-11-21T08:37:53;7.30;;;3.92;;
55829;SDS011;41759;53.330;6.002;2023-11-21T08:40:19;8.55;;;4.22;;
55829;SDS011;41759;53.330;6.002;2023-11-21T08:42:46;9.30;;;4.20;;
55829;SDS011;41759;53.330;6.002;2023-11-21T08:45:13;9.63;;;5.07;;
55829;SDS011;41759;53.330;6.002;2023-11-21T08:47:40;9.35;;;5.03;;
55829;SDS011;41759;53.330;6.002;2023-11-21T08:50:09;10.32;;;5.63;;
55829;SDS011;41759;53.330;6.002;2023-11-21T08:52:37;12.30;;;5.75;;
55829;SDS011;41759;53.330;6.002;2023-11-21T08:55:04;11.88;;;6.03;;
55829;SDS011;41759;53.330;6.002;2023-11-21T08:57:41;12.63;;;6.38;;
55829;SDS011;41759;53.330;6.002;2023-11-21T09:00:09;16.73;;;7.50;;
55829;SDS011;41759;53.330;6.002;2023-11-21T09:02:41;15.23;;;8.18;;
55829;SDS011;41759;53.330;6.002;2023-11-21T09:05:07;15.63;;;8.48;;
55829;SDS011;41759;53.330;6.002;2023-11-21T09:07:34;19.48;;;10.13;;
55829;SDS011;41759;53.330;6.002;2023-11-21T09:10:01;16.50;;;9.25;;
55829;SDS011;41759;53.330;6.002;2023-11-21T09:12:32;14.85;;;8.32;;
55829;SDS011;41759;53.330;6.002;2023-11-21T09:15:04;12.30;;;7.57;;
55829;SDS011;41759;53.330;6.002;2023-11-21T09:17:32;16.23;;;8.10;;
55829;SDS011;41759;53.330;6.002;2023-11-21T09:19:59;12.23;;;6.50;;
55829;SDS011;41759;53.330;6.002;2023-11-21T09:22:25;10.98;;;6.03;;
55829;SDS011;41759;53.330;6.002;2023-11-21T09:24:52;9.13;;;5.45;;
55829;SDS011;41759;53.330;6.002;2023-11-21T09:27:18;16.63;;;6.22;;
55829;SDS011;41759;53.330;6.002;2023-11-21T09:29:46;12.02;;;6.25;;
55829;SDS011;41759;53.330;6.002;2023-11-21T09:32:12;10.85;;;5.50;;
55829;SDS011;41759;53.330;6.002;2023-11-21T09:34:41;11.13;;;5.88;;
55829;SDS011;41759;53.330;6.002;2023-11-21T09:37:07;10.18;;;5.53;;
55829;SDS011;41759;53.330;6.002;2023-11-21T09:39:33;12.38;;;5.00;;
55829;SDS011;41759;53.330;6.002;2023-11-21T09:44:43;15.45;;;7.82;;
55829;SDS011;41759;53.330;6.002;2023-11-21T09:47:14;12.40;;;6.18;;
55829;SDS011;41759;53.330;6.002;2023-11-21T09:49:42;12.43;;;6.35;;
55829;SDS011;41759;53.330;6.002;2023-11-21T09:52:15;14.00;;;6.28;;
55829;SDS011;41759;53.330;6.002;2023-11-21T09:54:50;9.43;;;5.20;;
55829;SDS011;41759;53.330;6.002;2023-11-21T09:57:18;9.27;;;5.28;;
55829;SDS011;41759;53.330;6.002;2023-11-21T09:59:49;10.45;;;5.93;;
55829;SDS011;41759;53.330;6.002;2023-11-21T10:02:21;11.23;;;5.88;;
55829;SDS011;41759;53.330;6.002;2023-11-21T10:04:51;9.60;;;5.93;;
55829;SDS011;41759;53.330;6.002;2023-11-21T10:07:17;9.95;;;5.65;;
55829;SDS011;41759;53.330;6.002;2023-11-21T10:09:45;9.80;;;5.70;;
55829;SDS011;41759;53.330;6.002;2023-11-21T10:12:13;8.70;;;5.35;;
55829;SDS011;41759;53.330;6.002;2023-11-21T10:14:41;10.10;;;5.75;;
55829;SDS011;41759;53.330;6.002;2023-11-21T10:17:10;9.07;;;4.95;;
55829;SDS011;41759;53.330;6.002;2023-11-21T10:19:38;9.93;;;5.82;;
55829;SDS011;41759;53.330;6.002;2023-11-21T10:22:05;10.43;;;5.70;;
55829;SDS011;41759;53.330;6.002;2023-11-21T10:24:34;9.43;;;5.72;;
55829;SDS011;41759;53.330;6.002;2023-11-21T10:27:03;11.35;;;5.68;;
55829;SDS011;41759;53.330;6.002;2023-11-21T10:29:29;7.40;;;4.38;;
55829;SDS011;41759;53.330;6.002;2023-11-21T10:31:55;9.23;;;5.35;;
55829;SDS011;41759;53.330;6.002;2023-11-21T10:34:24;7.95;;;4.70;;
55829;SDS011;41759;53.330;6.002;2023-11-21T10:36:50;14.15;;;7.30;;
55829;SDS011;41759;53.330;6.002;2023-11-21T10:39:19;9.60;;;5.30;;
55829;SDS011;41759;53.330;6.002;2023-11-21T10:41:49;8.60;;;5.65;;
55829;SDS011;41759;53.330;6.002;2023-11-21T10:44:16;11.88;;;4.85;;
55829;SDS011;41759;53.330;6.002;2023-11-21T10:46:51;10.80;;;4.60;;
55829;SDS011;41759;53.330;6.002;2023-11-21T10:49:21;8.07;;;5.18;;
55829;SDS011;41759;53.330;6.002;2023-11-21T10:51:50;7.50;;;4.60;;
55829;SDS011;41759;53.330;6.002;2023-11-21T10:54:22;8.55;;;5.20;;
55829;SDS011;41759;53.330;6.002;2023-11-21T10:56:53;9.95;;;4.65;;
55829;SDS011;41759;53.330;6.002;2023-11-21T10:59:30;8.93;;;4.65;;
55829;SDS011;41759;53.330;6.002;2023-11-21T11:01:59;7.95;;;4.93;;
55829;SDS011;41759;53.330;6.002;2023-11-21T11:04:33;8.80;;;4.85;;
55829;SDS011;41759;53.330;6.002;2023-11-21T11:07:03;7.40;;;4.47;;
55829;SDS011;41759;53.330;6.002;2023-11-21T11:09:34;9.63;;;4.53;;
55829;SDS011;41759;53.330;6.002;2023-11-21T11:12:03;7.75;;;4.30;;
55829;SDS011;41759;53.330;6.002;2023-11-21T11:14:35;6.07;;;3.90;;
55829;SDS011;41759;53.330;6.002;2023-11-21T11:17:01;7.63;;;4.20;;
55829;SDS011;41759;53.330;6.002;2023-11-21T11:19:29;5.70;;;3.60;;
55829;SDS011;41759;53.330;6.002;2023-11-21T11:22:11;7.72;;;3.90;;
55829;SDS011;41759;53.330;6.002;2023-11-21T11:25:04;6.68;;;3.85;;
55829;SDS011;41759;53.330;6.002;2023-11-21T11:27:52;6.20;;;3.67;;
55829;SDS011;41759;53.330;6.002;2023-11-21T11:36:02;7.53;;;3.88;;
55829;SDS011;41759;53.330;6.002;2023-11-21T11:38:45;5.72;;;2.92;;
55829;SDS011;41759;53.330;6.002;2023-11-21T11:41:11;6.38;;;3.38;;
55829;SDS011;41759;53.330;6.002;2023-11-21T11:43:38;5.15;;;3.30;;
55829;SDS011;41759;53.330;6.002;2023-11-21T11:46:10;5.53;;;3.00;;
55829;SDS011;41759;53.330;6.002;2023-11-21T11:48:41;5.25;;;2.65;;
55829;SDS011;41759;53.330;6.002;2023-11-21T11:51:11;5.60;;;3.10;;
55829;SDS011;41759;53.330;6.002;2023-11-21T11:53:47;4.05;;;2.28;;
55829;SDS011;41759;53.330;6.002;2023-11-21T11:58:57;6.78;;;3.67;;
55829;SDS011;41759;53.330;6.002;2023-11-21T12:01:25;5.35;;;2.80;;
55829;SDS011;41759;53.330;6.002;2023-11-21T12:06:42;6.95;;;3.53;;
55829;SDS011;41759;53.330;6.002;2023-11-21T12:09:17;5.93;;;3.20;;
55829;SDS011;41759;53.330;6.002;2023-11-21T12:11:44;5.85;;;3.50;;
55829;SDS011;41759;53.330;6.002;2023-11-21T12:14:11;8.20;;;3.55;;
55829;SDS011;41759;53.330;6.002;2023-11-21T12:16:39;6.75;;;3.63;;
55829;SDS011;41759;53.330;6.002;2023-11-21T12:19:05;5.93;;;3.47;;
55829;SDS011;41759;53.330;6.002;2023-11-21T12:21:31;5.70;;;3.50;;
55829;SDS011;41759;53.330;6.002;2023-11-21T12:23:57;5.78;;;3.67;;
55829;SDS011;41759;53.330;6.002;2023-11-21T12:26:24;6.63;;;3.80;;
55829;SDS011;41759;53.330;6.002;2023-11-21T12:28:53;6.57;;;4.15;;
55829;SDS011;41759;53.330;6.002;2023-11-21T12:31:22;4.95;;;3.10;;
55829;SDS011;41759;53.330;6.002;2023-11-21T12:33:48;5.75;;;3.58;;
55829;SDS011;41759;53.330;6.002;2023-11-21T12:36:15;6.57;;;3.58;;
55829;SDS011;41759;53.330;6.002;2023-11-21T12:38:42;6.88;;;3.72;;
55829;SDS011;41759;53.330;6.002;2023-11-21T12:41:09;6.05;;;4.00;;
55829;SDS011;41759;53.330;6.002;2023-11-21T12:43:35;7.93;;;4.32;;
55829;SDS011;41759;53.330;6.002;2023-11-21T12:46:19;9.77;;;4.68;;
55829;SDS011;41759;53.330;6.002;2023-11-21T12:48:46;7.95;;;4.90;;
55829;SDS011;41759;53.330;6.002;2023-11-21T12:51:12;7.75;;;4.88;;
55829;SDS011;41759;53.330;6.002;2023-11-21T12:53:39;7.15;;;4.28;;
55829;SDS011;41759;53.330;6.002;2023-11-21T12:56:06;8.15;;;4.90;;
55829;SDS011;41759;53.330;6.002;2023-11-21T12:58:34;7.97;;;4.68;;
55829;SDS011;41759;53.330;6.002;2023-11-21T13:01:01;10.55;;;4.22;;
55829;SDS011;41759;53.330;6.002;2023-11-21T13:03:29;7.32;;;4.70;;
55829;SDS011;41759;53.330;6.002;2023-11-21T13:05:58;7.25;;;4.30;;
55829;SDS011;41759;53.330;6.002;2023-11-21T13:08:25;7.93;;;3.97;;
55829;SDS011;41759;53.330;6.002;2023-11-21T13:10:52;6.30;;;3.97;;
55829;SDS011;41759;53.330;6.002;2023-11-21T13:13:20;7.50;;;4.65;;
55829;SDS011;41759;53.330;6.002;2023-11-21T13:15:50;7.82;;;5.13;;
55829;SDS011;41759;53.330;6.002;2023-11-21T13:18:26;7.38;;;5.00;;
55829;SDS011;41759;53.330;6.002;2023-11-21T13:20:56;6.72;;;4.72;;
55829;SDS011;41759;53.330;6.002;2023-11-21T13:23:28;12.30;;;6.00;;
55829;SDS011;41759;53.330;6.002;2023-11-21T13:25:57;9.77;;;5.72;;
55829;SDS011;41759;53.330;6.002;2023-11-21T13:28:23;8.95;;;4.70;;
55829;SDS011;41759;53.330;6.002;2023-11-21T13:30:52;8.15;;;4.93;;
55829;SDS011;41759;53.330;6.002;2023-11-21T13:33:18;8.55;;;4.82;;
55829;SDS011;41759;53.330;6.002;2023-11-21T13:35:47;7.25;;;4.60;;
55829;SDS011;41759;53.330;6.002;2023-11-21T13:38:15;8.18;;;4.70;;
55829;SDS011;41759;53.330;6.002;2023-11-21T13:40:49;7.15;;;4.88;;
55829;SDS011;41759;53.330;6.002;2023-11-21T13:43:18;8.40;;;4.85;;
55829;SDS011;41759;53.330;6.002;2023-11-21T13:45:47;6.80;;;4.07;;
55829;SDS011;41759;53.330;6.002;2023-11-21T13:48:23;5.68;;;3.20;;
55829;SDS011;41759;53.330;6.002;2023-11-21T13:51:07;5.65;;;3.28;;
55829;SDS011;41759;53.330;6.002;2023-11-21T13:53:48;4.68;;;2.72;;
55829;SDS011;41759;53.330;6.002;2023-11-21T13:56:18;5.60;;;3.20;;
55829;SDS011;41759;53.330;6.002;2023-11-21T13:58:53;6.57;;;3.35;;
55829;SDS011;41759;53.330;6.002;2023-11-21T14:01:21;4.75;;;2.60;;
55829;SDS011;41759;53.330;6.002;2023-11-21T14:04:08;4.20;;;2.55;;
55829;SDS011;41759;53.330;6.002;2023-11-21T14:06:47;4.07;;;2.00;;
55829;SDS011;41759;53.330;6.002;2023-11-21T14:09:17;4.95;;;2.47;;
55829;SDS011;41759;53.330;6.002;2023-11-21T14:11:59;5.20;;;2.47;;
55829;SDS011;41759;53.330;6.002;2023-11-21T14:14:25;7.55;;;2.60;;
55829;SDS011;41759;53.330;6.002;2023-11-21T14:16:55;6.72;;;2.65;;
55829;SDS011;41759;53.330;6.002;2023-11-21T14:19:22;5.90;;;2.95;;
55829;SDS011;41759;53.330;6.002;2023-11-21T14:21:52;4.97;;;2.92;;
55829;SDS011;41759;53.330;6.002;2023-11-21T14:24:18;6.63;;;2.15;;
55829;SDS011;41759;53.330;6.002;2023-11-21T14:26:44;4.47;;;2.75;;
55829;SDS011;41759;53.330;6.002;2023-11-21T14:29:12;4.10;;;2.72;;
55829;SDS011;41759;53.330;6.002;2023-11-21T14:31:41;5.70;;;2.20;;
55829;SDS011;41759;53.330;6.002;2023-11-21T14:34:07;5.30;;;2.80;;
55829;SDS011;41759;53.330;6.002;2023-11-21T14:36:33;4.82;;;2.70;;
55829;SDS011;41759;53.330;6.002;2023-11-21T14:39:00;6.70;;;4.40;;
55829;SDS011;41759;53.330;6.002;2023-11-21T14:41:26;7.82;;;4.00;;
55829;SDS011;41759;53.330;6.002;2023-11-21T14:43:54;5.63;;;3.60;;
55829;SDS011;41759;53.330;6.002;2023-11-21T14:46:22;7.90;;;3.33;;
55829;SDS011;41759;53.330;6.002;2023-11-21T14:48:48;6.05;;;2.92;;
55829;SDS011;41759;53.330;6.002;2023-11-21T14:51:27;4.50;;;2.97;;
55829;SDS011;41759;53.330;6.002;2023-11-21T14:53:57;4.07;;;3.15;;
55829;SDS011;41759;53.330;6.002;2023-11-21T14:56:34;5.03;;;2.03;;
55829;SDS011;41759;53.330;6.002;2023-11-21T14:59:02;4.82;;;2.22;;